sensor_id;sensor_type;location;lat;lon;timestamp;P1;durP1;ratioP1;P2;durP2;ratioP2
41817;SDS011;27493;51.730;5.294;2023-05-07T00:00:10;11.97;;;10.77;;
41817;SDS011;27493;51.730;5.294;2023-05-07T00:02:36;12.53;;;11.10;;
41817;SDS011;27493;51.730;5.294;2023-05-07T00:05:02;11.33;;;10.13;;
41817;SDS011;27493;51.730;5.294;2023-05-07T00:07:27;12.07;;;10.33;;
41817;SDS011;27493;51.730;5.294;2023-05-07T00:09:53;13.00;;;10.87;;
41817;SDS011;27493;51.730;5.294;2023-05-07T00:12:18;12.03;;;10.13;;
41817;SDS011;27493;51.730;5.294;2023-05-07T00:14:43;13.83;;;10.57;;
41817;SDS011;27493;51.730;5.294;2023-05-07T00:17:08;12.03;;;10.30;;
41817;SDS011;27493;51.730;5.294;2023-05-07T00:19:34;10.80;;;9.70;;
41817;SDS011;27493;51.730;5.294;2023-05-07T00:21:59;11.63;;;10.17;;
41817;SDS011;27493;51.730;5.294;2023-05-07T00:24:24;11.00;;;9.47;;
41817;SDS011;27493;51.730;5.294;2023-05-07T00:26:49;11.07;;;8.97;;
41817;SDS011;27493;51.730;5.294;2023-05-07T00:29:15;10.07;;;9.07;;
41817;SDS011;27493;51.730;5.294;2023-05-07T00:31:40;10.37;;;9.00;;
41817;SDS011;27493;51.730;5.294;2023-05-07T00:34:05;12.87;;;9.57;;
41817;SDS011;27493;51.730;5.294;2023-05-07T00:36:31;10.37;;;8.93;;
41817;SDS011;27493;51.730;5.294;2023-05-07T00:38:56;10.90;;;8.50;;
41817;SDS011;27493;51.730;5.294;2023-05-07T00:41:22;9.97;;;8.93;;
41817;SDS011;27493;51.730;5.294;2023-05-07T00:43:47;12.70;;;8.63;;
41817;SDS011;27493;51.730;5.294;2023-05-07T00:46:13;10.73;;;9.37;;
41817;SDS011;27493;51.730;5.294;2023-05-07T00:48:38;9.57;;;8.50;;
41817;SDS011;27493;51.730;5.294;2023-05-07T00:51:03;12.33;;;9.00;;
41817;SDS011;27493;51.730;5.294;2023-05-07T00:53:29;13.07;;;9.03;;
41817;SDS011;27493;51.730;5.294;2023-05-07T00:55:55;11.37;;;8.10;;
41817;SDS011;27493;51.730;5.294;2023-05-07T00:58:21;10.87;;;9.10;;
41817;SDS011;27493;51.730;5.294;2023-05-07T01:00:46;10.33;;;8.33;;
41817;SDS011;27493;51.730;5.294;2023-05-07T01:03:11;9.30;;;8.30;;
41817;SDS011;27493;51.730;5.294;2023-05-07T01:05:37;10.23;;;8.47;;
41817;SDS011;27493;51.730;5.294;2023-05-07T01:08:02;11.23;;;8.47;;
41817;SDS011;27493;51.730;5.294;2023-05-07T01:10:29;9.90;;;8.27;;
41817;SDS011;27493;51.730;5.294;2023-05-07T01:12:55;10.30;;;8.23;;
41817;SDS011;27493;51.730;5.294;2023-05-07T01:15:21;10.40;;;7.93;;
41817;SDS011;27493;51.730;5.294;2023-05-07T01:17:46;9.93;;;8.27;;
41817;SDS011;27493;51.730;5.294;2023-05-07T01:20:12;10.63;;;8.57;;
41817;SDS011;27493;51.730;5.294;2023-05-07T01:22:37;9.87;;;8.20;;
41817;SDS011;27493;51.730;5.294;2023-05-07T01:25:03;11.33;;;8.10;;
41817;SDS011;27493;51.730;5.294;2023-05-07T01:27:28;9.97;;;8.70;;
41817;SDS011;27493;51.730;5.294;2023-05-07T01:29:54;10.43;;;8.80;;
41817;SDS011;27493;51.730;5.294;2023-05-07T01:32:21;10.47;;;9.47;;
41817;SDS011;27493;51.730;5.294;2023-05-07T01:34:48;10.37;;;8.23;;
41817;SDS011;27493;51.730;5.294;2023-05-07T01:37:14;11.17;;;9.27;;
41817;SDS011;27493;51.730;5.294;2023-05-07T01:39:40;9.93;;;8.93;;
41817;SDS011;27493;51.730;5.294;2023-05-07T01:42:05;10.70;;;9.60;;
41817;SDS011;27493;51.730;5.294;2023-05-07T01:44:31;10.87;;;9.00;;
41817;SDS011;27493;51.730;5.294;2023-05-07T01:46:57;13.23;;;9.17;;
41817;SDS011;27493;51.730;5.294;2023-05-07T01:49:22;11.80;;;9.43;;
41817;SDS011;27493;51.730;5.294;2023-05-07T01:51:47;11.27;;;9.40;;
41817;SDS011;27493;51.730;5.294;2023-05-07T01:54:13;10.53;;;9.43;;
41817;SDS011;27493;51.730;5.294;2023-05-07T01:56:38;11.73;;;9.57;;
41817;SDS011;27493;51.730;5.294;2023-05-07T01:59:03;10.67;;;9.57;;
41817;SDS011;27493;51.730;5.294;2023-05-07T02:01:28;12.00;;;10.80;;
41817;SDS011;27493;51.730;5.294;2023-05-07T02:03:53;12.53;;;9.90;;
41817;SDS011;27493;51.730;5.294;2023-05-07T02:06:19;12.50;;;10.27;;
41817;SDS011;27493;51.730;5.294;2023-05-07T02:08:44;13.57;;;10.13;;
41817;SDS011;27493;51.730;5.294;2023-05-07T02:11:09;11.07;;;9.90;;
41817;SDS011;27493;51.730;5.294;2023-05-07T02:13:35;11.13;;;9.93;;
41817;SDS011;27493;51.730;5.294;2023-05-07T02:16:01;11.23;;;10.03;;
41817;SDS011;27493;51.730;5.294;2023-05-07T02:18:26;12.53;;;11.07;;
41817;SDS011;27493;51.730;5.294;2023-05-07T02:20:51;12.10;;;10.77;;
41817;SDS011;27493;51.730;5.294;2023-05-07T02:23:16;12.27;;;10.90;;
41817;SDS011;27493;51.730;5.294;2023-05-07T02:25:42;13.60;;;11.53;;
41817;SDS011;27493;51.730;5.294;2023-05-07T02:28:07;14.27;;;11.27;;
41817;SDS011;27493;51.730;5.294;2023-05-07T02:30:32;13.00;;;11.50;;
41817;SDS011;27493;51.730;5.294;2023-05-07T02:32:58;12.90;;;11.50;;
41817;SDS011;27493;51.730;5.294;2023-05-07T02:35:24;14.40;;;12.37;;
41817;SDS011;27493;51.730;5.294;2023-05-07T02:37:49;13.53;;;11.43;;
41817;SDS011;27493;51.730;5.294;2023-05-07T02:40:14;14.47;;;12.03;;
41817;SDS011;27493;51.730;5.294;2023-05-07T02:42:39;14.00;;;11.63;;
41817;SDS011;27493;51.730;5.294;2023-05-07T02:45:04;14.20;;;12.30;;
41817;SDS011;27493;51.730;5.294;2023-05-07T02:47:30;15.70;;;13.03;;
41817;SDS011;27493;51.730;5.294;2023-05-07T02:49:55;14.87;;;12.87;;
41817;SDS011;27493;51.730;5.294;2023-05-07T02:52:20;15.13;;;12.83;;
41817;SDS011;27493;51.730;5.294;2023-05-07T02:54:46;15.53;;;12.40;;
41817;SDS011;27493;51.730;5.294;2023-05-07T02:57:11;15.20;;;12.70;;
41817;SDS011;27493;51.730;5.294;2023-05-07T02:59:36;15.07;;;12.63;;
41817;SDS011;27493;51.730;5.294;2023-05-07T03:02:01;14.63;;;12.43;;
41817;SDS011;27493;51.730;5.294;2023-05-07T03:04:26;16.97;;;13.53;;
41817;SDS011;27493;51.730;5.294;2023-05-07T03:06:51;15.17;;;13.47;;
41817;SDS011;27493;51.730;5.294;2023-05-07T03:09:17;16.40;;;13.17;;
41817;SDS011;27493;51.730;5.294;2023-05-07T03:11:42;16.73;;;14.10;;
41817;SDS011;27493;51.730;5.294;2023-05-07T03:14:07;16.07;;;14.37;;
41817;SDS011;27493;51.730;5.294;2023-05-07T03:16:32;15.50;;;13.77;;
41817;SDS011;27493;51.730;5.294;2023-05-07T03:18:57;17.07;;;14.57;;
41817;SDS011;27493;51.730;5.294;2023-05-07T03:21:23;15.97;;;14.10;;
41817;SDS011;27493;51.730;5.294;2023-05-07T03:23:48;18.20;;;15.43;;
41817;SDS011;27493;51.730;5.294;2023-05-07T03:26:13;17.17;;;14.57;;
41817;SDS011;27493;51.730;5.294;2023-05-07T03:28:38;18.07;;;16.17;;
41817;SDS011;27493;51.730;5.294;2023-05-07T03:31:03;16.90;;;15.10;;
41817;SDS011;27493;51.730;5.294;2023-05-07T03:33:29;18.03;;;15.53;;
41817;SDS011;27493;51.730;5.294;2023-05-07T03:35:54;18.53;;;15.30;;
41817;SDS011;27493;51.730;5.294;2023-05-07T03:38:19;18.87;;;15.87;;
41817;SDS011;27493;51.730;5.294;2023-05-07T03:40:44;16.57;;;14.87;;
41817;SDS011;27493;51.730;5.294;2023-05-07T03:43:10;17.47;;;15.63;;
41817;SDS011;27493;51.730;5.294;2023-05-07T03:45:35;19.77;;;15.83;;
41817;SDS011;27493;51.730;5.294;2023-05-07T03:48:00;19.57;;;16.10;;
41817;SDS011;27493;51.730;5.294;2023-05-07T03:50:25;18.50;;;16.27;;
41817;SDS011;27493;51.730;5.294;2023-05-07T03:52:50;17.70;;;15.87;;
41817;SDS011;27493;51.730;5.294;2023-05-07T03:55:16;19.63;;;16.43;;
41817;SDS011;27493;51.730;5.294;2023-05-07T03:57:41;19.47;;;17.07;;
41817;SDS011;27493;51.730;5.294;2023-05-07T04:00:07;18.60;;;16.13;;
41817;SDS011;27493;51.730;5.294;2023-05-07T04:02:32;21.10;;;16.50;;
41817;SDS011;27493;51.730;5.294;2023-05-07T04:04:57;20.97;;;16.93;;
41817;SDS011;27493;51.730;5.294;2023-05-07T04:07:23;20.00;;;17.47;;
41817;SDS011;27493;51.730;5.294;2023-05-07T04:09:48;22.23;;;17.70;;
41817;SDS011;27493;51.730;5.294;2023-05-07T04:12:13;20.47;;;18.27;;
41817;SDS011;27493;51.730;5.294;2023-05-07T04:14:38;22.30;;;19.77;;
41817;SDS011;27493;51.730;5.294;2023-05-07T04:17:03;22.20;;;18.47;;
41817;SDS011;27493;51.730;5.294;2023-05-07T04:19:28;24.83;;;19.10;;
41817;SDS011;27493;51.730;5.294;2023-05-07T04:21:54;23.40;;;19.13;;
41817;SDS011;27493;51.730;5.294;2023-05-07T04:24:19;22.80;;;19.50;;
41817;SDS011;27493;51.730;5.294;2023-05-07T04:26:45;23.30;;;20.73;;
41817;SDS011;27493;51.730;5.294;2023-05-07T04:29:10;26.03;;;19.60;;
41817;SDS011;27493;51.730;5.294;2023-05-07T04:31:36;22.40;;;19.83;;
41817;SDS011;27493;51.730;5.294;2023-05-07T04:34:01;23.60;;;20.17;;
41817;SDS011;27493;51.730;5.294;2023-05-07T04:36:26;25.63;;;21.03;;
41817;SDS011;27493;51.730;5.294;2023-05-07T04:38:52;25.47;;;20.63;;
41817;SDS011;27493;51.730;5.294;2023-05-07T04:41:17;25.80;;;20.83;;
41817;SDS011;27493;51.730;5.294;2023-05-07T04:43:43;26.37;;;21.43;;
41817;SDS011;27493;51.730;5.294;2023-05-07T04:46:08;26.43;;;21.83;;
41817;SDS011;27493;51.730;5.294;2023-05-07T04:48:33;28.80;;;22.40;;
41817;SDS011;27493;51.730;5.294;2023-05-07T04:50:58;28.07;;;22.33;;
41817;SDS011;27493;51.730;5.294;2023-05-07T04:53:23;26.17;;;23.33;;
41817;SDS011;27493;51.730;5.294;2023-05-07T04:55:48;26.60;;;23.20;;
41817;SDS011;27493;51.730;5.294;2023-05-07T04:58:14;26.40;;;22.20;;
41817;SDS011;27493;51.730;5.294;2023-05-07T05:00:39;29.03;;;23.43;;
41817;SDS011;27493;51.730;5.294;2023-05-07T05:03:04;28.63;;;22.80;;
41817;SDS011;27493;51.730;5.294;2023-05-07T05:05:30;27.73;;;23.57;;
41817;SDS011;27493;51.730;5.294;2023-05-07T05:07:55;25.83;;;22.83;;
41817;SDS011;27493;51.730;5.294;2023-05-07T05:10:21;30.90;;;24.13;;
41817;SDS011;27493;51.730;5.294;2023-05-07T05:12:46;30.20;;;23.00;;
41817;SDS011;27493;51.730;5.294;2023-05-07T05:15:12;27.60;;;24.10;;
41817;SDS011;27493;51.730;5.294;2023-05-07T05:17:37;26.63;;;22.87;;
41817;SDS011;27493;51.730;5.294;2023-05-07T05:20:03;27.07;;;22.77;;
41817;SDS011;27493;51.730;5.294;2023-05-07T05:22:28;27.33;;;24.40;;
41817;SDS011;27493;51.730;5.294;2023-05-07T05:24:56;27.57;;;24.03;;
41817;SDS011;27493;51.730;5.294;2023-05-07T05:27:21;30.10;;;24.53;;
41817;SDS011;27493;51.730;5.294;2023-05-07T05:29:46;30.27;;;25.33;;
41817;SDS011;27493;51.730;5.294;2023-05-07T05:32:11;30.50;;;26.17;;
41817;SDS011;27493;51.730;5.294;2023-05-07T05:34:36;30.17;;;25.03;;
41817;SDS011;27493;51.730;5.294;2023-05-07T05:37:01;30.53;;;27.20;;
41817;SDS011;27493;51.730;5.294;2023-05-07T05:39:27;33.87;;;26.60;;
41817;SDS011;27493;51.730;5.294;2023-05-07T05:41:52;30.87;;;26.70;;
41817;SDS011;27493;51.730;5.294;2023-05-07T05:44:17;34.30;;;27.03;;
41817;SDS011;27493;51.730;5.294;2023-05-07T05:46:43;32.67;;;27.63;;
41817;SDS011;27493;51.730;5.294;2023-05-07T05:49:08;32.23;;;27.97;;
41817;SDS011;27493;51.730;5.294;2023-05-07T05:51:33;35.00;;;28.03;;
41817;SDS011;27493;51.730;5.294;2023-05-07T05:53:58;37.97;;;30.53;;
41817;SDS011;27493;51.730;5.294;2023-05-07T05:56:23;37.40;;;30.07;;
41817;SDS011;27493;51.730;5.294;2023-05-07T05:58:49;39.47;;;29.97;;
41817;SDS011;27493;51.730;5.294;2023-05-07T06:01:14;36.30;;;30.40;;
41817;SDS011;27493;51.730;5.294;2023-05-07T06:03:39;35.87;;;30.33;;
41817;SDS011;27493;51.730;5.294;2023-05-07T06:06:05;40.63;;;32.10;;
41817;SDS011;27493;51.730;5.294;2023-05-07T06:08:30;37.67;;;31.07;;
41817;SDS011;27493;51.730;5.294;2023-05-07T06:10:55;41.90;;;31.27;;
41817;SDS011;27493;51.730;5.294;2023-05-07T06:13:21;37.83;;;30.03;;
41817;SDS011;27493;51.730;5.294;2023-05-07T06:15:46;39.50;;;31.43;;
41817;SDS011;27493;51.730;5.294;2023-05-07T06:18:11;36.90;;;30.43;;
41817;SDS011;27493;51.730;5.294;2023-05-07T06:20:36;40.73;;;30.53;;
41817;SDS011;27493;51.730;5.294;2023-05-07T06:23:01;38.77;;;30.53;;
41817;SDS011;27493;51.730;5.294;2023-05-07T06:25:27;37.53;;;30.47;;
41817;SDS011;27493;51.730;5.294;2023-05-07T06:27:52;40.00;;;31.23;;
41817;SDS011;27493;51.730;5.294;2023-05-07T06:30:17;36.93;;;30.20;;
41817;SDS011;27493;51.730;5.294;2023-05-07T06:32:42;35.97;;;31.03;;
41817;SDS011;27493;51.730;5.294;2023-05-07T06:35:08;39.10;;;30.47;;
41817;SDS011;27493;51.730;5.294;2023-05-07T06:37:33;37.17;;;30.73;;
41817;SDS011;27493;51.730;5.294;2023-05-07T06:39:58;38.33;;;31.43;;
41817;SDS011;27493;51.730;5.294;2023-05-07T06:42:23;36.73;;;29.30;;
41817;SDS011;27493;51.730;5.294;2023-05-07T06:44:48;36.40;;;30.90;;
41817;SDS011;27493;51.730;5.294;2023-05-07T06:47:14;38.97;;;31.23;;
41817;SDS011;27493;51.730;5.294;2023-05-07T06:49:39;35.53;;;29.53;;
41817;SDS011;27493;51.730;5.294;2023-05-07T06:52:04;38.10;;;29.53;;
41817;SDS011;27493;51.730;5.294;2023-05-07T06:54:30;38.10;;;30.53;;
41817;SDS011;27493;51.730;5.294;2023-05-07T06:56:55;38.23;;;29.87;;
41817;SDS011;27493;51.730;5.294;2023-05-07T06:59:20;37.17;;;29.27;;
41817;SDS011;27493;51.730;5.294;2023-05-07T07:01:45;37.20;;;28.13;;
41817;SDS011;27493;51.730;5.294;2023-05-07T07:04:10;36.03;;;29.67;;
41817;SDS011;27493;51.730;5.294;2023-05-07T07:06:36;34.20;;;28.30;;
41817;SDS011;27493;51.730;5.294;2023-05-07T07:09:01;37.53;;;28.13;;
41817;SDS011;27493;51.730;5.294;2023-05-07T07:11:26;33.20;;;26.90;;
41817;SDS011;27493;51.730;5.294;2023-05-07T07:13:51;31.63;;;25.97;;
41817;SDS011;27493;51.730;5.294;2023-05-07T07:16:18;31.97;;;27.20;;
41817;SDS011;27493;51.730;5.294;2023-05-07T07:18:44;31.87;;;25.87;;
41817;SDS011;27493;51.730;5.294;2023-05-07T07:21:09;33.63;;;26.40;;
41817;SDS011;27493;51.730;5.294;2023-05-07T07:23:34;30.13;;;25.47;;
41817;SDS011;27493;51.730;5.294;2023-05-07T07:25:59;30.20;;;25.50;;
41817;SDS011;27493;51.730;5.294;2023-05-07T07:28:25;32.57;;;26.17;;
41817;SDS011;27493;51.730;5.294;2023-05-07T07:30:50;31.13;;;24.87;;
41817;SDS011;27493;51.730;5.294;2023-05-07T07:33:15;31.47;;;25.07;;
41817;SDS011;27493;51.730;5.294;2023-05-07T07:35:41;29.20;;;23.73;;
41817;SDS011;27493;51.730;5.294;2023-05-07T07:38:06;30.87;;;23.97;;
41817;SDS011;27493;51.730;5.294;2023-05-07T07:40:31;28.90;;;24.17;;
41817;SDS011;27493;51.730;5.294;2023-05-07T07:42:57;26.70;;;22.77;;
41817;SDS011;27493;51.730;5.294;2023-05-07T07:45:22;25.30;;;22.27;;
41817;SDS011;27493;51.730;5.294;2023-05-07T07:47:47;30.60;;;23.93;;
41817;SDS011;27493;51.730;5.294;2023-05-07T07:50:12;27.43;;;23.53;;
41817;SDS011;27493;51.730;5.294;2023-05-07T07:52:38;30.90;;;24.53;;
41817;SDS011;27493;51.730;5.294;2023-05-07T07:55:03;28.27;;;23.30;;
41817;SDS011;27493;51.730;5.294;2023-05-07T07:57:29;27.57;;;23.87;;
41817;SDS011;27493;51.730;5.294;2023-05-07T07:59:54;27.93;;;22.33;;
41817;SDS011;27493;51.730;5.294;2023-05-07T08:02:20;27.57;;;22.63;;
41817;SDS011;27493;51.730;5.294;2023-05-07T08:04:45;28.30;;;23.47;;
41817;SDS011;27493;51.730;5.294;2023-05-07T08:07:10;30.33;;;24.57;;
41817;SDS011;27493;51.730;5.294;2023-05-07T08:09:36;27.47;;;24.00;;
41817;SDS011;27493;51.730;5.294;2023-05-07T08:12:02;27.97;;;24.53;;
41817;SDS011;27493;51.730;5.294;2023-05-07T08:14:27;27.40;;;23.83;;
41817;SDS011;27493;51.730;5.294;2023-05-07T08:16:53;26.87;;;23.60;;
41817;SDS011;27493;51.730;5.294;2023-05-07T08:19:18;26.83;;;23.57;;
41817;SDS011;27493;51.730;5.294;2023-05-07T08:21:44;26.90;;;23.20;;
41817;SDS011;27493;51.730;5.294;2023-05-07T08:24:09;27.10;;;23.33;;
41817;SDS011;27493;51.730;5.294;2023-05-07T08:26:35;25.87;;;22.87;;
41817;SDS011;27493;51.730;5.294;2023-05-07T08:29:00;25.43;;;22.57;;
41817;SDS011;27493;51.730;5.294;2023-05-07T08:31:26;27.17;;;21.97;;
41817;SDS011;27493;51.730;5.294;2023-05-07T08:33:51;28.50;;;22.63;;
41817;SDS011;27493;51.730;5.294;2023-05-07T08:36:16;25.63;;;21.77;;
41817;SDS011;27493;51.730;5.294;2023-05-07T08:38:41;23.60;;;20.40;;
41817;SDS011;27493;51.730;5.294;2023-05-07T08:41:12;24.03;;;20.87;;
41817;SDS011;27493;51.730;5.294;2023-05-07T08:43:37;23.03;;;20.73;;
41817;SDS011;27493;51.730;5.294;2023-05-07T08:46:03;24.00;;;19.57;;
41817;SDS011;27493;51.730;5.294;2023-05-07T08:48:29;23.90;;;20.30;;
41817;SDS011;27493;51.730;5.294;2023-05-07T08:50:57;24.00;;;19.87;;
41817;SDS011;27493;51.730;5.294;2023-05-07T08:53:23;24.67;;;20.67;;
41817;SDS011;27493;51.730;5.294;2023-05-07T08:55:48;22.57;;;19.27;;
41817;SDS011;27493;51.730;5.294;2023-05-07T08:58:13;20.77;;;17.70;;
41817;SDS011;27493;51.730;5.294;2023-05-07T09:00:39;21.40;;;17.93;;
41817;SDS011;27493;51.730;5.294;2023-05-07T09:03:05;20.13;;;17.47;;
41817;SDS011;27493;51.730;5.294;2023-05-07T09:05:30;19.27;;;17.20;;
41817;SDS011;27493;51.730;5.294;2023-05-07T09:07:58;18.97;;;16.97;;
41817;SDS011;27493;51.730;5.294;2023-05-07T09:10:23;22.23;;;17.70;;
41817;SDS011;27493;51.730;5.294;2023-05-07T09:12:48;21.93;;;19.17;;
41817;SDS011;27493;51.730;5.294;2023-05-07T09:15:14;19.43;;;17.07;;
41817;SDS011;27493;51.730;5.294;2023-05-07T09:17:39;18.20;;;16.30;;
41817;SDS011;27493;51.730;5.294;2023-05-07T09:20:06;17.80;;;16.00;;
41817;SDS011;27493;51.730;5.294;2023-05-07T09:22:32;21.47;;;16.37;;
41817;SDS011;27493;51.730;5.294;2023-05-07T09:24:57;18.60;;;16.63;;
41817;SDS011;27493;51.730;5.294;2023-05-07T09:27:22;18.83;;;16.03;;
41817;SDS011;27493;51.730;5.294;2023-05-07T09:29:47;18.60;;;16.33;;
41817;SDS011;27493;51.730;5.294;2023-05-07T09:32:12;18.07;;;16.00;;
41817;SDS011;27493;51.730;5.294;2023-05-07T09:34:39;18.50;;;15.93;;
41817;SDS011;27493;51.730;5.294;2023-05-07T09:37:05;17.43;;;15.23;;
41817;SDS011;27493;51.730;5.294;2023-05-07T09:39:43;18.57;;;16.40;;
41817;SDS011;27493;51.730;5.294;2023-05-07T09:42:08;18.27;;;15.07;;
41817;SDS011;27493;51.730;5.294;2023-05-07T09:44:34;16.93;;;14.73;;
41817;SDS011;27493;51.730;5.294;2023-05-07T09:46:59;17.70;;;15.90;;
41817;SDS011;27493;51.730;5.294;2023-05-07T09:49:25;19.37;;;17.37;;
41817;SDS011;27493;51.730;5.294;2023-05-07T09:51:54;22.00;;;17.97;;
41817;SDS011;27493;51.730;5.294;2023-05-07T09:54:20;18.00;;;16.10;;
41817;SDS011;27493;51.730;5.294;2023-05-07T09:56:45;19.67;;;17.47;;
41817;SDS011;27493;51.730;5.294;2023-05-07T09:59:12;19.20;;;17.30;;
41817;SDS011;27493;51.730;5.294;2023-05-07T10:01:38;21.73;;;18.90;;
41817;SDS011;27493;51.730;5.294;2023-05-07T10:04:05;20.47;;;18.27;;
41817;SDS011;27493;51.730;5.294;2023-05-07T10:06:30;21.43;;;18.63;;
41817;SDS011;27493;51.730;5.294;2023-05-07T10:08:56;21.37;;;19.13;;
41817;SDS011;27493;51.730;5.294;2023-05-07T10:11:22;22.57;;;17.80;;
41817;SDS011;27493;51.730;5.294;2023-05-07T10:13:48;21.07;;;18.87;;
41817;SDS011;27493;51.730;5.294;2023-05-07T10:16:13;20.63;;;18.48;;
41817;SDS011;27493;51.730;5.294;2023-05-07T10:18:40;19.80;;;17.90;;
41817;SDS011;27493;51.730;5.294;2023-05-07T10:21:11;19.53;;;17.43;;
41817;SDS011;27493;51.730;5.294;2023-05-07T10:23:37;18.40;;;16.60;;
41817;SDS011;27493;51.730;5.294;2023-05-07T10:26:04;17.77;;;15.93;;
41817;SDS011;27493;51.730;5.294;2023-05-07T10:28:30;18.33;;;14.83;;
41817;SDS011;27493;51.730;5.294;2023-05-07T10:33:41;14.83;;;13.33;;
41817;SDS011;27493;51.730;5.294;2023-05-07T10:36:07;16.27;;;14.68;;
41817;SDS011;27493;51.730;5.294;2023-05-07T10:38:33;17.77;;;15.10;;
41817;SDS011;27493;51.730;5.294;2023-05-07T10:40:58;16.27;;;14.53;;
41817;SDS011;27493;51.730;5.294;2023-05-07T10:43:23;15.50;;;13.87;;
41817;SDS011;27493;51.730;5.294;2023-05-07T10:46:08;16.43;;;14.73;;
41817;SDS011;27493;51.730;5.294;2023-05-07T10:48:34;17.73;;;15.90;;
41817;SDS011;27493;51.730;5.294;2023-05-07T10:51:20;19.00;;;16.97;;
41817;SDS011;27493;51.730;5.294;2023-05-07T10:53:45;18.10;;;16.30;;
41817;SDS011;27493;51.730;5.294;2023-05-07T10:58:39;20.67;;;18.40;;
41817;SDS011;27493;51.730;5.294;2023-05-07T11:01:04;19.53;;;17.50;;
41817;SDS011;27493;51.730;5.294;2023-05-07T11:03:29;18.77;;;16.88;;
41817;SDS011;27493;51.730;5.294;2023-05-07T11:06:14;19.65;;;17.65;;
41817;SDS011;27493;51.730;5.294;2023-05-07T11:11:17;19.60;;;17.70;;
41817;SDS011;27493;51.730;5.294;2023-05-07T11:13:46;19.60;;;17.63;;
41817;SDS011;27493;51.730;5.294;2023-05-07T11:16:18;20.17;;;17.05;;
41817;SDS011;27493;51.730;5.294;2023-05-07T11:18:47;19.80;;;17.67;;
41817;SDS011;27493;51.730;5.294;2023-05-07T11:21:16;20.10;;;17.80;;
41817;SDS011;27493;51.730;5.294;2023-05-07T11:23:56;18.80;;;17.00;;
41817;SDS011;27493;51.730;5.294;2023-05-07T11:26:21;19.65;;;17.65;;
41817;SDS011;27493;51.730;5.294;2023-05-07T11:28:47;21.25;;;18.95;;
41817;SDS011;27493;51.730;5.294;2023-05-07T11:31:12;19.83;;;17.83;;
41817;SDS011;27493;51.730;5.294;2023-05-07T11:33:37;20.27;;;18.15;;
41817;SDS011;27493;51.730;5.294;2023-05-07T11:36:03;19.80;;;17.80;;
41817;SDS011;27493;51.730;5.294;2023-05-07T11:38:35;20.38;;;18.15;;
41817;SDS011;27493;51.730;5.294;2023-05-07T11:41:01;20.42;;;18.33;;
41817;SDS011;27493;51.730;5.294;2023-05-07T11:43:27;19.63;;;17.73;;
41817;SDS011;27493;51.730;5.294;2023-05-07T11:45:52;19.42;;;17.52;;
41817;SDS011;27493;51.730;5.294;2023-05-07T11:48:18;19.17;;;17.27;;
41817;SDS011;27493;51.730;5.294;2023-05-07T11:50:50;19.13;;;17.13;;
41817;SDS011;27493;51.730;5.294;2023-05-07T11:53:15;20.25;;;16.48;;
41817;SDS011;27493;51.730;5.294;2023-05-07T11:55:42;19.02;;;17.05;;
41817;SDS011;27493;51.730;5.294;2023-05-07T11:58:08;19.00;;;17.10;;
41817;SDS011;27493;51.730;5.294;2023-05-07T12:00:34;19.08;;;17.00;;
41817;SDS011;27493;51.730;5.294;2023-05-07T12:03:02;20.20;;;16.65;;
41817;SDS011;27493;51.730;5.294;2023-05-07T12:05:28;17.23;;;15.43;;
41817;SDS011;27493;51.730;5.294;2023-05-07T12:07:55;17.45;;;15.65;;
41817;SDS011;27493;51.730;5.294;2023-05-07T12:10:21;16.13;;;14.30;;
41817;SDS011;27493;51.730;5.294;2023-05-07T12:12:46;14.88;;;13.40;;
41817;SDS011;27493;51.730;5.294;2023-05-07T12:15:13;16.27;;;13.93;;
41817;SDS011;27493;51.730;5.294;2023-05-07T12:17:40;15.02;;;13.52;;
41817;SDS011;27493;51.730;5.294;2023-05-07T12:20:06;15.20;;;13.70;;
41817;SDS011;27493;51.730;5.294;2023-05-07T12:22:31;15.45;;;13.60;;
41817;SDS011;27493;51.730;5.294;2023-05-07T12:24:57;14.55;;;13.15;;
41817;SDS011;27493;51.730;5.294;2023-05-07T12:33:27;13.98;;;12.57;;
41817;SDS011;27493;51.730;5.294;2023-05-07T12:35:54;13.70;;;12.30;;
41817;SDS011;27493;51.730;5.294;2023-05-07T12:38:19;16.75;;;12.05;;
41817;SDS011;27493;51.730;5.294;2023-05-07T12:40:45;15.70;;;12.60;;
41817;SDS011;27493;51.730;5.294;2023-05-07T12:43:15;14.07;;;12.57;;
41817;SDS011;27493;51.730;5.294;2023-05-07T12:45:42;15.23;;;13.73;;
41817;SDS011;27493;51.730;5.294;2023-05-07T12:48:09;14.18;;;12.77;;
41817;SDS011;27493;51.730;5.294;2023-05-07T12:50:34;13.68;;;12.05;;
41817;SDS011;27493;51.730;5.294;2023-05-07T12:52:59;13.25;;;11.90;;
41817;SDS011;27493;51.730;5.294;2023-05-07T12:55:25;12.75;;;11.40;;
41817;SDS011;27493;51.730;5.294;2023-05-07T12:57:50;14.32;;;12.35;;
41817;SDS011;27493;51.730;5.294;2023-05-07T13:00:16;12.50;;;11.20;;
41817;SDS011;27493;51.730;5.294;2023-05-07T13:02:42;12.52;;;11.23;;
41817;SDS011;27493;51.730;5.294;2023-05-07T13:05:09;12.30;;;10.73;;
41817;SDS011;27493;51.730;5.294;2023-05-07T13:07:34;12.65;;;11.02;;
41817;SDS011;27493;51.730;5.294;2023-05-07T13:09:59;12.00;;;10.70;;
41817;SDS011;27493;51.730;5.294;2023-05-07T13:12:25;12.68;;;10.77;;
41817;SDS011;27493;51.730;5.294;2023-05-07T13:14:50;12.77;;;11.48;;
41817;SDS011;27493;51.730;5.294;2023-05-07T13:17:15;14.32;;;11.50;;
41817;SDS011;27493;51.730;5.294;2023-05-07T13:19:40;12.25;;;10.90;;
41817;SDS011;27493;51.730;5.294;2023-05-07T13:22:05;13.95;;;11.23;;
41817;SDS011;27493;51.730;5.294;2023-05-07T13:24:31;14.18;;;12.77;;
41817;SDS011;27493;51.730;5.294;2023-05-07T13:26:56;15.70;;;13.18;;
41817;SDS011;27493;51.730;5.294;2023-05-07T13:29:21;13.63;;;12.23;;
41817;SDS011;27493;51.730;5.294;2023-05-07T13:31:53;13.65;;;11.88;;
41817;SDS011;27493;51.730;5.294;2023-05-07T13:34:18;12.98;;;11.10;;
41817;SDS011;27493;51.730;5.294;2023-05-07T13:36:44;11.73;;;10.45;;
41817;SDS011;27493;51.730;5.294;2023-05-07T13:39:09;12.95;;;11.65;;
41817;SDS011;27493;51.730;5.294;2023-05-07T13:41:34;12.80;;;11.50;;
41817;SDS011;27493;51.730;5.294;2023-05-07T13:44:00;12.48;;;11.15;;
41817;SDS011;27493;51.730;5.294;2023-05-07T13:46:25;12.80;;;11.40;;
41817;SDS011;27493;51.730;5.294;2023-05-07T13:48:50;15.07;;;11.68;;
41817;SDS011;27493;51.730;5.294;2023-05-07T13:51:29;13.00;;;11.65;;
41817;SDS011;27493;51.730;5.294;2023-05-07T13:53:54;14.00;;;12.48;;
41817;SDS011;27493;51.730;5.294;2023-05-07T13:59:22;11.07;;;8.82;;
41817;SDS011;27493;51.730;5.294;2023-05-07T14:01:47;13.43;;;9.55;;
41817;SDS011;27493;51.730;5.294;2023-05-07T14:07:15;11.70;;;9.10;;
41817;SDS011;27493;51.730;5.294;2023-05-07T14:12:44;10.07;;;8.13;;
41817;SDS011;27493;51.730;5.294;2023-05-07T14:15:09;11.48;;;6.88;;
41817;SDS011;27493;51.730;5.294;2023-05-07T14:17:34;7.63;;;5.05;;
41817;SDS011;27493;51.730;5.294;2023-05-07T14:20:00;9.18;;;6.50;;
41817;SDS011;27493;51.730;5.294;2023-05-07T14:22:25;12.82;;;9.85;;
41817;SDS011;27493;51.730;5.294;2023-05-07T14:24:50;12.20;;;10.90;;
41817;SDS011;27493;51.730;5.294;2023-05-07T14:27:16;17.88;;;15.38;;
41817;SDS011;27493;51.730;5.294;2023-05-07T14:29:41;16.33;;;14.60;;
41817;SDS011;27493;51.730;5.294;2023-05-07T14:32:07;18.15;;;15.18;;
41817;SDS011;27493;51.730;5.294;2023-05-07T14:34:32;17.75;;;15.48;;
41817;SDS011;27493;51.730;5.294;2023-05-07T14:36:58;20.05;;;17.42;;